Time;durP1;ratioP1;P1;durP2;ratioP2;P2;SDS_P1;SDS_P2;PMS_P1;PMS_P2;Temp;Humidity;BMP_temperature;BMP_pressure;BME280_temperature;BME280_humidity;BME280_pressure;Samples;Min_cycle;Max_cycle;Signal;HPM_P1;HPM_P2
2022/07/15 00:02:06;;;;;;;2.47;1.02;;;20.10;88.90;;;;;;5052692;28;20396;-74
2022/07/15 00:04:32;;;;;;;2.45;1.10;;;20.10;88.90;;;;;;5055474;28;20032;-74
2022/07/15 00:06:57;;;;;;;2.25;1.10;;;20.00;88.80;;;;;;5071828;28;20446;-74
2022/07/15 00:10:13;;;;;;;2.35;1.10;;;20.00;89.00;;;;;;5052346;28;20120;-73
2022/07/15 00:12:10;;;;;;;2.17;1.00;;;20.00;89.10;;;;;;5050671;28;20545;-74
2022/07/15 00:14:36;;;;;;;2.75;1.05;;;20.00;89.10;;;;;;5049998;28;20036;-74
2022/07/15 00:17:01;;;;;;;2.63;1.10;;;20.00;89.20;;;;;;5066367;28;20116;-74
2022/07/15 00:19:27;;;;;;;2.72;1.30;;;20.00;89.30;;;;;;5071210;28;20503;-74
2022/07/15 00:21:53;;;;;;;1.83;1.10;;;20.00;89.20;;;;;;5058635;28;20072;-75
2022/07/15 00:24:18;;;;;;;2.25;1.00;;;19.90;89.10;;;;;;5071938;28;20021;-74
2022/07/15 00:26:44;;;;;;;1.95;1.25;;;20.00;89.20;;;;;;5068512;28;20052;-74
2022/07/15 00:29:10;;;;;;;1.95;1.00;;;19.90;89.20;;;;;;5050354;28;20107;-74
2022/07/15 00:31:36;;;;;;;2.05;1.08;;;19.90;89.20;;;;;;5050142;28;20047;-70
2022/07/15 00:34:01;;;;;;;2.85;1.25;;;19.90;89.30;;;;;;5050990;28;20456;-71
2022/07/15 00:36:27;;;;;;;1.88;1.00;;;19.90;89.30;;;;;;5049909;28;20028;-72
2022/07/15 00:38:53;;;;;;;2.35;1.17;;;19.90;89.30;;;;;;5050181;28;20045;-74
2022/07/15 00:41:18;;;;;;;2.97;1.27;;;19.90;89.20;;;;;;5054370;28;20017;-74
2022/07/15 00:43:44;;;;;;;1.85;1.10;;;20.00;89.10;;;;;;5052954;28;20082;-70
2022/07/15 00:46:09;;;;;;;2.28;1.05;;;20.00;89.00;;;;;;5071219;28;20112;-75
2022/07/15 00:48:35;;;;;;;3.47;1.30;;;20.00;89.00;;;;;;5071225;28;20050;-75
2022/07/15 00:51:00;;;;;;;2.17;1.15;;;20.00;88.80;;;;;;5071480;28;20482;-74
2022/07/15 00:53:29;;;;;;;2.85;1.23;;;20.00;88.80;;;;;;5051081;28;20083;-74
2022/07/15 00:55:58;;;;;;;3.75;1.30;;;20.00;88.90;;;;;;5049751;28;20094;-75
2022/07/15 00:58:26;;;;;;;2.80;1.10;;;20.00;88.90;;;;;;5050926;28;20074;-75
2022/07/15 01:00:54;;;;;;;2.70;1.20;;;20.00;89.00;;;;;;5049712;28;20406;-75
2022/07/15 01:03:20;;;;;;;3.50;1.33;;;20.00;89.20;;;;;;5049730;28;20021;-74
2022/07/15 01:05:47;;;;;;;2.58;1.10;;;20.00;89.20;;;;;;5050887;28;20500;-76
2022/07/15 01:08:14;;;;;;;3.35;1.20;;;19.90;89.20;;;;;;5051150;28;20740;-76
2022/07/15 01:10:40;;;;;;;2.03;1.17;;;19.90;89.20;;;;;;5049636;28;20021;-75
2022/07/15 01:13:06;;;;;;;3.20;1.40;;;19.90;89.20;;;;;;5049594;28;20125;-74
2022/07/15 01:15:33;;;;;;;2.33;1.10;;;19.90;89.20;;;;;;5049302;28;20417;-76
2022/07/15 01:18:01;;;;;;;3.42;1.20;;;19.90;89.20;;;;;;5055632;28;20092;-75
2022/07/15 01:20:26;;;;;;;2.25;1.10;;;19.90;89.20;;;;;;5052508;28;20025;-75
2022/07/15 01:22:52;;;;;;;2.75;1.20;;;19.90;89.20;;;;;;5072078;28;20444;-75
2022/07/15 01:25:17;;;;;;;2.92;1.20;;;19.90;89.30;;;;;;5085341;28;20504;-75
2022/07/15 01:27:43;;;;;;;1.90;1.20;;;19.90;89.30;;;;;;5059671;28;20024;-74
2022/07/15 01:30:09;;;;;;;2.58;1.20;;;19.90;89.30;;;;;;5074661;28;20108;-75
2022/07/15 01:32:34;;;;;;;2.53;1.23;;;19.90;89.20;;;;;;5073771;28;20043;-75
2022/07/15 01:35:00;;;;;;;3.08;1.30;;;19.90;89.10;;;;;;5066026;28;20033;-75
2022/07/15 01:37:26;;;;;;;3.50;1.25;;;19.90;89.00;;;;;;5056350;28;20182;-74
2022/07/15 01:39:52;;;;;;;2.25;1.20;;;20.00;89.00;;;;;;5071018;28;20493;-75
2022/07/15 01:42:18;;;;;;;2.05;1.17;;;20.00;88.90;;;;;;5046845;28;20040;-74
2022/07/15 01:44:43;;;;;;;2.55;1.33;;;20.00;88.70;;;;;;5064112;28;20033;-75
2022/07/15 01:47:09;;;;;;;2.05;1.10;;;20.00;88.80;;;;;;5088201;28;20043;-76
2022/07/15 01:49:36;;;;;;;2.47;1.00;;;20.00;88.70;;;;;;5080688;28;20469;-75
2022/07/15 01:52:03;;;;;;;2.35;1.20;;;20.00;88.80;;;;;;5057897;28;20033;-75
2022/07/15 01:54:31;;;;;;;3.67;1.70;;;20.00;89.10;;;;;;5050170;28;20462;-75
2022/07/15 01:56:57;;;;;;;2.53;1.17;;;19.90;89.10;;;;;;5036432;28;20121;-75
2022/07/15 01:59:24;;;;;;;2.45;1.10;;;19.90;89.60;;;;;;5036473;28;20124;-75
2022/07/15 02:01:51;;;;;;;1.58;1.02;;;19.90;89.20;;;;;;5036575;28;20031;-74
2022/07/15 02:04:18;;;;;;;2.63;1.38;;;19.90;89.10;;;;;;5035877;28;20505;-73
2022/07/15 02:06:44;;;;;;;1.88;1.30;;;19.90;89.20;;;;;;5060132;28;20056;-75
2022/07/15 02:09:10;;;;;;;2.38;1.30;;;19.90;89.20;;;;;;5056311;28;20053;-76
2022/07/15 02:11:36;;;;;;;3.38;1.20;;;19.90;89.20;;;;;;5056285;28;20492;-75
2022/07/15 02:14:01;;;;;;;2.55;1.30;;;19.90;89.20;;;;;;5055794;28;20461;-76
2022/07/15 02:16:31;;;;;;;2.63;1.30;;;19.80;89.10;;;;;;5056067;28;20035;-75
2022/07/15 02:18:57;;;;;;;3.83;1.50;;;19.90;89.20;;;;;;5055903;28;20032;-75
2022/07/15 02:21:24;;;;;;;2.38;1.23;;;19.80;89.20;;;;;;5073215;28;20126;-75
2022/07/15 02:23:49;;;;;;;2.38;1.40;;;19.90;89.00;;;;;;5073391;28;20025;-72
2022/07/15 02:26:15;;;;;;;2.65;1.10;;;19.90;89.00;;;;;;5073649;28;20085;-73
2022/07/15 02:28:41;;;;;;;3.50;1.13;;;19.90;88.90;;;;;;5073576;28;20037;-75
2022/07/15 02:31:06;;;;;;;2.20;1.20;;;19.90;88.80;;;;;;5055753;28;20558;-75
2022/07/15 02:33:32;;;;;;;1.90;1.23;;;20.00;88.80;;;;;;5072925;28;20028;-75
2022/07/15 02:36:06;;;;;;;3.58;1.30;;;20.00;88.60;;;;;;5054746;28;20025;-75
2022/07/15 02:38:32;;;;;;;4.03;1.30;;;20.00;88.70;;;;;;5051319;28;20025;-75
2022/07/15 02:40:57;;;;;;;2.33;1.23;;;20.00;88.70;;;;;;5073128;28;20155;-75
2022/07/15 02:43:23;;;;;;;4.72;1.45;;;19.90;88.70;;;;;;5041945;28;20024;-73
2022/07/15 02:45:48;;;;;;;5.90;1.50;;;19.90;88.70;;;;;;5055409;28;20044;-73
2022/07/15 02:48:15;;;;;;;3.42;1.25;;;19.90;88.90;;;;;;5055552;28;20446;-74
2022/07/15 02:50:41;;;;;;;3.13;1.30;;;19.90;89.00;;;;;;5070307;28;20511;-72
2022/07/15 02:53:07;;;;;;;1.58;1.10;;;19.90;89.10;;;;;;5053272;28;20111;-75
2022/07/15 02:55:32;;;;;;;2.60;1.13;;;19.90;89.00;;;;;;5037355;28;20175;-75
2022/07/15 02:57:58;;;;;;;2.83;1.30;;;19.90;89.00;;;;;;5072412;28;20032;-75
2022/07/15 03:00:24;;;;;;;2.97;1.40;;;19.90;89.00;;;;;;5036875;28;20017;-75
2022/07/15 03:02:49;;;;;;;3.13;1.17;;;19.90;89.00;;;;;;5046014;28;20123;-76
2022/07/15 03:05:15;;;;;;;2.97;1.40;;;19.80;89.00;;;;;;5053019;28;20123;-75
2022/07/15 03:07:41;;;;;;;2.47;1.30;;;19.80;89.00;;;;;;5054276;28;20036;-73
2022/07/15 03:10:08;;;;;;;3.30;1.30;;;19.80;89.00;;;;;;5057839;28;20033;-74
2022/07/15 03:12:34;;;;;;;3.30;1.30;;;19.90;89.00;;;;;;5066866;28;20038;-75
2022/07/15 03:15:00;;;;;;;3.53;1.40;;;19.90;88.90;;;;;;5061020;28;20115;-75
2022/07/15 03:17:26;;;;;;;2.70;1.40;;;19.80;88.80;;;;;;5052926;28;20774;-72
2022/07/15 03:19:52;;;;;;;2.72;1.30;;;19.80;88.70;;;;;;5036810;28;20056;-74
2022/07/15 03:22:18;;;;;;;3.60;1.33;;;19.90;88.70;;;;;;5070913;28;20064;-75
2022/07/15 03:24:43;;;;;;;2.20;1.33;;;19.90;88.60;;;;;;5054084;28;20032;-75
2022/07/15 03:27:09;;;;;;;2.88;1.40;;;20.00;88.60;;;;;;5037682;28;20047;-75
2022/07/15 03:29:35;;;;;;;2.08;1.20;;;19.90;88.50;;;;;;5052562;28;20039;-75
2022/07/15 03:32:01;;;;;;;3.22;1.30;;;19.90;88.50;;;;;;5053904;28;20036;-75
2022/07/15 03:34:27;;;;;;;3.40;1.42;;;19.90;88.40;;;;;;5058744;28;20498;-74
2022/07/15 03:36:53;;;;;;;2.75;1.38;;;19.90;88.60;;;;;;5068715;28;20017;-75
2022/07/15 03:39:19;;;;;;;2.60;1.40;;;19.90;88.70;;;;;;5072119;28;20021;-75
2022/07/15 03:41:46;;;;;;;3.38;1.58;;;19.90;88.80;;;;;;5054432;28;20508;-75
2022/07/15 03:44:13;;;;;;;3.97;1.70;;;19.90;88.80;;;;;;5037937;28;20497;-73
2022/07/15 03:46:39;;;;;;;2.33;1.40;;;19.90;88.80;;;;;;5057333;28;20393;-74
2022/07/15 03:49:04;;;;;;;2.50;1.58;;;19.90;88.90;;;;;;5034302;28;20178;-75
2022/07/15 03:51:33;;;;;;;3.15;1.55;;;19.80;88.80;;;;;;5034890;28;20092;-75
2022/07/15 03:54:00;;;;;;;3.85;1.90;;;19.80;88.70;;;;;;5038135;28;20073;-76
2022/07/15 03:56:27;;;;;;;3.83;1.88;;;19.80;88.70;;;;;;5073385;28;20031;-77
2022/07/15 03:58:52;;;;;;;3.22;1.40;;;19.80;88.70;;;;;;5062000;28;20166;-75
2022/07/15 04:01:18;;;;;;;2.50;1.45;;;19.80;88.70;;;;;;5065803;28;20111;-76
2022/07/15 04:03:43;;;;;;;5.18;1.70;;;19.80;88.70;;;;;;5049264;28;20020;-76
2022/07/15 04:06:09;;;;;;;2.42;1.40;;;19.80;88.70;;;;;;5050344;28;20497;-75
2022/07/15 04:08:34;;;;;;;2.00;1.38;;;19.80;88.60;;;;;;5071743;28;20017;-76
2022/07/15 04:11:00;;;;;;;3.03;1.48;;;19.80;88.50;;;;;;5071772;28;20036;-76
2022/07/15 04:13:25;;;;;;;2.40;1.20;;;19.80;88.40;;;;;;5041709;28;20033;-76
2022/07/15 04:15:51;;;;;;;3.97;1.40;;;19.90;88.40;;;;;;5055531;28;20500;-76
2022/07/15 04:18:17;;;;;;;3.25;1.42;;;19.90;88.30;;;;;;5051630;28;20545;-76
2022/07/15 04:20:42;;;;;;;3.45;1.63;;;19.90;88.20;;;;;;5051640;28;20025;-76
2022/07/15 04:23:08;;;;;;;3.50;1.30;;;19.90;88.20;;;;;;5052668;28;20042;-76
2022/07/15 04:25:33;;;;;;;2.97;1.40;;;19.90;88.20;;;;;;5053276;28;20032;-76
2022/07/15 04:27:59;;;;;;;1.65;1.20;;;19.90;88.30;;;;;;5053231;28;20025;-76
2022/07/15 04:30:24;;;;;;;2.90;1.50;;;19.90;88.30;;;;;;5051502;28;20033;-76
2022/07/15 04:32:50;;;;;;;3.15;1.55;;;19.90;88.30;;;;;;5053327;28;20034;-77
2022/07/15 04:35:16;;;;;;;3.15;1.58;;;19.80;88.30;;;;;;5051728;28;20382;-76
2022/07/15 04:37:42;;;;;;;3.55;1.50;;;19.80;88.30;;;;;;5059102;28;20029;-76
2022/07/15 04:40:09;;;;;;;3.30;1.80;;;19.90;88.40;;;;;;5058484;28;20108;-75
2022/07/15 04:42:37;;;;;;;2.83;1.70;;;19.90;88.40;;;;;;5053789;28;20112;-76
2022/07/15 04:45:03;;;;;;;2.25;1.50;;;19.90;88.40;;;;;;5071241;28;20039;-75
2022/07/15 04:47:29;;;;;;;3.58;1.58;;;19.80;88.30;;;;;;5071745;28;20477;-76
2022/07/15 04:52:45;;;;;;;3.15;1.40;;;19.80;88.20;;;;;;5060024;28;20516;-76
2022/07/15 04:55:11;;;;;;;2.45;1.40;;;19.80;88.30;;;;;;5041412;28;20021;-78
2022/07/15 04:57:37;;;;;;;2.90;1.50;;;19.80;88.30;;;;;;5062730;28;20444;-77
2022/07/15 05:00:04;;;;;;;2.72;1.33;;;19.80;88.30;;;;;;5070590;28;20113;-77
2022/07/15 05:02:30;;;;;;;3.13;1.60;;;19.80;88.10;;;;;;5046055;28;20154;-76
2022/07/15 05:04:55;;;;;;;3.55;1.50;;;19.90;88.10;;;;;;5035885;28;20120;-82
2022/07/15 05:07:21;;;;;;;3.35;1.48;;;19.80;88.00;;;;;;5048170;28;20025;-76
2022/07/15 05:09:46;;;;;;;3.35;1.30;;;19.90;88.00;;;;;;5044528;28;20021;-75
2022/07/15 05:12:12;;;;;;;4.03;1.45;;;19.90;87.90;;;;;;5040733;28;20389;-76
2022/07/15 05:14:40;;;;;;;4.65;1.48;;;19.90;87.80;;;;;;5050867;28;20020;-75
2022/07/15 05:17:06;;;;;;;3.22;1.55;;;19.90;87.70;;;;;;5051755;28;20024;-75
2022/07/15 05:19:32;;;;;;;2.28;1.20;;;19.90;87.70;;;;;;5069714;28;20078;-75
2022/07/15 05:21:58;;;;;;;3.20;1.45;;;19.90;87.70;;;;;;5070674;28;20020;-79
2022/07/15 05:24:23;;;;;;;4.50;1.50;;;19.90;87.70;;;;;;5070849;28;20020;-75
2022/07/15 05:26:49;;;;;;;2.10;1.17;;;19.80;87.70;;;;;;5070812;28;20027;-75
2022/07/15 05:29:14;;;;;;;3.13;1.50;;;19.80;87.80;;;;;;5070728;28;20058;-75
2022/07/15 05:31:40;;;;;;;3.50;1.52;;;19.90;87.90;;;;;;5070945;28;20631;-76
2022/07/15 05:34:06;;;;;;;3.08;1.55;;;19.80;87.80;;;;;;5070552;28;20013;-75
2022/07/15 05:36:32;;;;;;;3.17;1.50;;;19.80;87.80;;;;;;5052552;28;20020;-75
2022/07/15 05:38:58;;;;;;;4.07;1.60;;;19.80;87.80;;;;;;5053042;28;20016;-74
2022/07/15 05:41:23;;;;;;;3.78;1.35;;;19.80;87.80;;;;;;5049339;28;20051;-75
2022/07/15 05:43:48;;;;;;;4.45;1.48;;;19.80;87.80;;;;;;5052951;28;20032;-80
2022/07/15 05:46:14;;;;;;;3.42;1.60;;;19.80;87.80;;;;;;5066016;28;20036;-75
2022/07/15 05:48:40;;;;;;;4.55;1.80;;;19.80;87.80;;;;;;5070315;28;20028;-75
2022/07/15 05:51:07;;;;;;;4.03;1.60;;;19.80;87.90;;;;;;5070188;28;20460;-74
2022/07/15 05:53:32;;;;;;;3.10;1.45;;;19.80;87.70;;;;;;5068729;28;20029;-75
2022/07/15 05:55:59;;;;;;;3.72;1.60;;;19.90;87.70;;;;;;5069165;28;20412;-74
2022/07/15 05:58:24;;;;;;;4.78;1.70;;;19.80;87.60;;;;;;5052854;28;20012;-75
2022/07/15 06:00:51;;;;;;;3.92;1.40;;;19.90;87.70;;;;;;5052913;28;20504;-74
2022/07/15 06:03:17;;;;;;;3.22;1.30;;;19.90;87.60;;;;;;5070047;28;20046;-74
2022/07/15 06:05:43;;;;;;;2.70;1.55;;;19.90;87.40;;;;;;5070369;28;20031;-74
2022/07/15 06:08:08;;;;;;;3.78;1.65;;;19.90;87.40;;;;;;5070764;28;20024;-75
2022/07/15 06:10:34;;;;;;;3.55;1.60;;;19.90;87.30;;;;;;5074386;28;20021;-74
2022/07/15 06:13:00;;;;;;;3.60;1.50;;;19.90;87.30;;;;;;5073076;28;20021;-74
2022/07/15 06:15:25;;;;;;;4.80;1.60;;;19.90;87.40;;;;;;5055943;28;20025;-74
2022/07/15 06:17:51;;;;;;;4.53;1.58;;;19.90;87.40;;;;;;5056364;28;20089;-74
2022/07/15 06:20:17;;;;;;;2.58;1.30;;;19.90;87.50;;;;;;5074084;28;20052;-75
2022/07/15 06:22:42;;;;;;;3.40;1.50;;;19.90;87.50;;;;;;5074484;28;20024;-74
2022/07/15 06:25:08;;;;;;;4.80;1.70;;;19.90;87.40;;;;;;5073867;28;20021;-74
2022/07/15 06:27:34;;;;;;;3.30;1.50;;;19.90;87.40;;;;;;5056162;28;20059;-74
2022/07/15 06:30:00;;;;;;;2.10;1.20;;;19.90;87.30;;;;;;5056208;28;20021;-74
2022/07/15 06:32:25;;;;;;;2.80;1.33;;;19.90;87.10;;;;;;5073981;28;20059;-74
2022/07/15 06:34:51;;;;;;;3.67;1.58;;;19.90;86.90;;;;;;5055572;28;20020;-74
2022/07/15 06:37:17;;;;;;;3.33;1.40;;;19.90;86.70;;;;;;5073900;28;20028;-74
2022/07/15 06:39:43;;;;;;;3.40;1.40;;;19.90;86.50;;;;;;5056103;28;20495;-74
2022/07/15 06:42:08;;;;;;;3.60;1.30;;;19.90;86.60;;;;;;5056004;28;20013;-74
2022/07/15 06:44:34;;;;;;;3.83;1.40;;;20.00;86.80;;;;;;5055618;28;20020;-74
2022/07/15 06:47:00;;;;;;;2.22;1.23;;;20.00;87.00;;;;;;5055844;28;20020;-74
2022/07/15 06:49:25;;;;;;;3.90;1.40;;;20.00;86.80;;;;;;5055693;28;20021;-74
2022/07/15 06:51:51;;;;;;;2.42;1.40;;;20.00;86.60;;;;;;5073701;28;20028;-73
2022/07/15 06:54:18;;;;;;;2.97;1.48;;;20.10;86.40;;;;;;5073197;28;20091;-75
2022/07/15 06:56:43;;;;;;;4.03;1.65;;;20.10;86.10;;;;;;5073555;28;20017;-74
2022/07/15 06:59:09;;;;;;;3.88;1.60;;;20.20;86.00;;;;;;5055622;28;20085;-73
2022/07/15 07:01:34;;;;;;;4.75;1.50;;;20.20;85.80;;;;;;5054953;28;20500;-75
2022/07/15 07:04:00;;;;;;;3.92;1.60;;;20.20;85.80;;;;;;5073112;28;20020;-74
2022/07/15 07:06:26;;;;;;;3.10;1.50;;;20.20;85.80;;;;;;5055414;28;20032;-75
2022/07/15 07:08:52;;;;;;;3.45;1.70;;;20.20;85.70;;;;;;5055681;28;20017;-74
2022/07/15 07:11:19;;;;;;;3.95;1.60;;;20.20;85.70;;;;;;5072168;28;20495;-74
2022/07/15 07:13:45;;;;;;;2.90;1.20;;;20.20;85.70;;;;;;5055017;28;20465;-74
2022/07/15 07:16:10;;;;;;;4.50;1.50;;;20.20;85.70;;;;;;5073010;28;20029;-74
2022/07/15 07:18:36;;;;;;;3.40;1.40;;;20.20;85.70;;;;;;5055153;28;20500;-74
2022/07/15 07:21:01;;;;;;;3.78;1.50;;;20.20;85.60;;;;;;5054721;28;20070;-75
2022/07/15 07:23:27;;;;;;;4.55;1.70;;;20.10;85.70;;;;;;5054727;28;20020;-74
2022/07/15 07:25:57;;;;;;;3.92;1.52;;;20.10;85.50;;;;;;5073011;28;20020;-74
2022/07/15 07:28:22;;;;;;;3.72;1.50;;;20.10;85.70;;;;;;5071732;28;20024;-74
2022/07/15 07:30:50;;;;;;;3.35;1.38;;;20.10;85.70;;;;;;5055074;28;20027;-74
2022/07/15 07:33:16;;;;;;;3.05;1.40;;;20.10;85.90;;;;;;5072844;28;20017;-74
2022/07/15 07:35:42;;;;;;;3.03;1.48;;;20.10;85.80;;;;;;5070234;28;20036;-74
2022/07/15 07:38:08;;;;;;;2.75;1.40;;;20.10;86.00;;;;;;5054226;28;20414;-74
2022/07/15 07:40:34;;;;;;;3.42;1.40;;;20.10;86.00;;;;;;5072002;28;20025;-74
2022/07/15 07:42:59;;;;;;;3.70;1.35;;;20.20;86.00;;;;;;5072705;28;20016;-74
2022/07/15 07:45:28;;;;;;;3.25;1.50;;;20.20;85.70;;;;;;5054067;28;20052;-74
2022/07/15 07:47:54;;;;;;;3.20;1.42;;;20.20;85.60;;;;;;5054613;28;20020;-74
2022/07/15 07:50:19;;;;;;;4.55;1.77;;;20.30;85.50;;;;;;5071392;28;20020;-75
2022/07/15 07:52:45;;;;;;;4.60;1.42;;;20.20;85.40;;;;;;5054585;28;20017;-74
2022/07/15 07:55:10;;;;;;;3.00;1.25;;;20.30;85.50;;;;;;5054018;28;20531;-74
2022/07/15 07:57:50;;;;;;;4.20;1.60;;;20.20;85.50;;;;;;5072344;28;20021;-75
2022/07/15 08:00:16;;;;;;;3.42;1.50;;;20.20;85.60;;;;;;5072283;28;20485;-75
2022/07/15 08:02:41;;;;;;;3.22;1.20;;;20.20;85.50;;;;;;5054396;28;20028;-75
2022/07/15 08:05:08;;;;;;;4.35;1.52;;;20.20;85.40;;;;;;5053973;28;20377;-74
2022/07/15 08:07:35;;;;;;;2.72;1.30;;;20.20;85.40;;;;;;5070866;28;20544;-75
2022/07/15 08:10:01;;;;;;;3.47;1.48;;;20.20;85.20;;;;;;5072011;28;20035;-74
2022/07/15 08:12:26;;;;;;;3.22;1.50;;;20.30;85.40;;;;;;5072111;28;20024;-74
2022/07/15 08:14:54;;;;;;;2.80;1.25;;;20.30;85.30;;;;;;5071623;28;20032;-75
2022/07/15 08:17:20;;;;;;;3.55;1.45;;;20.30;85.10;;;;;;5072021;28;20016;-74
2022/07/15 08:19:46;;;;;;;4.78;1.40;;;20.30;85.10;;;;;;5053982;28;20548;-74
2022/07/15 08:22:11;;;;;;;2.50;1.20;;;20.30;85.00;;;;;;5071783;28;20115;-74
2022/07/15 08:24:37;;;;;;;3.05;1.20;;;20.30;84.90;;;;;;5053701;28;20031;-74
2022/07/15 08:27:03;;;;;;;3.92;1.48;;;20.30;84.80;;;;;;5071711;28;20052;-74
2022/07/15 08:29:28;;;;;;;3.20;1.27;;;20.30;85.00;;;;;;5071858;28;20377;-75
2022/07/15 08:31:53;;;;;;;3.83;1.48;;;20.30;84.70;;;;;;5071158;28;20027;-74
2022/07/15 08:34:19;;;;;;;4.55;1.85;;;20.30;84.90;;;;;;5071064;28;20408;-74
2022/07/15 08:36:44;;;;;;;3.17;1.33;;;20.40;85.00;;;;;;5071589;28;20029;-74
2022/07/15 08:39:11;;;;;;;3.35;1.40;;;20.40;85.00;;;;;;5053800;28;20091;-74
2022/07/15 08:41:37;;;;;;;2.80;1.20;;;20.40;84.80;;;;;;5053680;28;20020;-75
2022/07/15 08:44:03;;;;;;;3.67;1.42;;;20.40;84.70;;;;;;5053049;28;20017;-74
2022/07/15 08:46:31;;;;;;;3.13;1.30;;;20.40;84.70;;;;;;5071418;28;20028;-74
2022/07/15 08:49:08;;;;;;;3.35;1.45;;;20.40;84.70;;;;;;5070184;28;20495;-74
2022/07/15 08:51:38;;;;;;;2.08;1.17;;;20.30;84.70;;;;;;5070471;28;20051;-74
2022/07/15 08:54:04;;;;;;;3.42;1.40;;;20.30;84.80;;;;;;5071021;28;20035;-74
2022/07/15 08:56:32;;;;;;;3.47;1.20;;;20.30;85.50;;;;;;5071334;28;20024;-73
2022/07/15 08:58:58;;;;;;;2.63;1.30;;;20.30;85.00;;;;;;5070104;28;20432;-74
2022/07/15 09:01:23;;;;;;;3.33;1.30;;;20.30;85.10;;;;;;5071531;28;20013;-74
2022/07/15 09:03:49;;;;;;;3.00;1.10;;;20.30;85.10;;;;;;5071145;28;20038;-74
2022/07/15 09:06:40;;;;;;;3.08;1.13;;;20.20;85.10;;;;;;5053399;28;20028;-75
2022/07/15 09:09:17;;;;;;;3.00;1.10;;;20.20;85.00;;;;;;5070121;28;20028;-74
2022/07/15 09:11:43;;;;;;;4.43;1.30;;;20.20;84.90;;;;;;5053284;28;20115;-74
2022/07/15 09:14:13;;;;;;;3.35;1.27;;;20.20;85.00;;;;;;5070730;28;20146;-74
2022/07/15 09:16:39;;;;;;;3.17;1.27;;;20.20;85.00;;;;;;5069707;28;20111;-74
2022/07/15 09:19:04;;;;;;;2.53;1.17;;;20.20;84.90;;;;;;5071169;28;20600;-75
2022/07/15 09:21:29;;;;;;;2.60;1.13;;;20.20;84.90;;;;;;5053316;28;20021;-75
2022/07/15 09:23:55;;;;;;;2.63;1.13;;;20.20;85.60;;;;;;5052723;28;20032;-75
2022/07/15 09:26:29;;;;;;;2.90;1.08;;;20.20;85.10;;;;;;5071101;28;20028;-75
2022/07/15 09:28:56;;;;;;;2.53;1.20;;;20.30;85.10;;;;;;5070967;28;20028;-75
2022/07/15 09:34:17;;;;;;;2.50;1.08;;;20.30;84.80;;;;;;5070744;28;20496;-75
2022/07/15 09:36:46;;;;;;;2.50;1.13;;;20.30;84.60;;;;;;5071065;28;20032;-75
2022/07/15 09:39:12;;;;;;;2.65;1.35;;;20.40;84.50;;;;;;5069655;28;20036;-75
2022/07/15 09:41:43;;;;;;;2.65;1.00;;;20.40;84.30;;;;;;5070888;28;20055;-75
2022/07/15 09:44:10;;;;;;;;;;;20.40;84.30;;;;;;5071277;28;20385;-74
2022/07/15 09:46:43;;;;;;;2.28;0.98;;;20.50;84.10;;;;;;5074861;28;19927;-74
2022/07/15 09:49:21;;;;;;;3.03;1.10;;;20.40;84.10;;;;;;5074773;28;20028;-74
2022/07/15 09:51:50;;;;;;;2.63;1.02;;;20.40;84.10;;;;;;5056727;28;20025;-75
2022/07/15 09:54:17;;;;;;;2.55;1.10;;;20.40;84.10;;;;;;5056547;28;20017;-74
2022/07/15 09:56:44;;;;;;;2.67;1.10;;;20.40;84.10;;;;;;5074607;28;20127;-74
2022/07/15 09:59:10;;;;;;;2.15;1.10;;;20.40;84.20;;;;;;5073271;28;20023;-75
2022/07/15 10:01:36;;;;;;;2.10;1.08;;;20.40;84.30;;;;;;5074677;28;20091;-74
2022/07/15 10:04:03;;;;;;;2.55;1.13;;;20.40;84.40;;;;;;5056314;28;20008;-75
2022/07/15 10:06:29;;;;;;;2.38;1.10;;;20.40;84.30;;;;;;5074491;28;20032;-75
2022/07/15 10:08:55;;;;;;;2.88;1.02;;;20.40;84.40;;;;;;5074474;28;20020;-75
2022/07/15 10:11:21;;;;;;;1.75;1.00;;;20.40;84.30;;;;;;5074394;28;20082;-73
2022/07/15 10:14:21;;;;;;;2.35;1.20;;;20.40;84.30;;;;;;5074200;28;20033;-74
2022/07/15 10:17:11;;;;;;;2.78;1.27;;;20.40;84.40;;;;;;5074341;28;20234;-75
2022/07/15 10:19:59;;;;;;;2.65;1.10;;;20.40;84.60;;;;;;5074304;28;20021;-74
2022/07/15 10:23:01;;;;;;;2.58;1.00;;;20.40;84.50;;;;;;5074281;28;20028;-74
2022/07/15 10:25:39;;;;;;;2.20;1.10;;;20.40;84.30;;;;;;5056018;28;20488;-74
2022/07/15 10:28:13;;;;;;;2.55;1.20;;;20.40;84.30;;;;;;5074252;28;20070;-75
2022/07/15 10:30:39;;;;;;;2.95;1.13;;;20.40;84.20;;;;;;5074044;28;20074;-75
2022/07/15 10:33:19;;;;;;;2.75;1.20;;;20.40;84.20;;;;;;5056053;28;20025;-74
2022/07/15 10:35:53;;;;;;;2.75;1.20;;;20.40;84.20;;;;;;5073572;28;20074;-74
2022/07/15 10:38:36;;;;;;;2.10;1.08;;;20.40;84.20;;;;;;5072800;28;20017;-74
2022/07/15 10:41:14;;;;;;;3.10;1.20;;;20.40;84.40;;;;;;5073911;28;20042;-74
2022/07/15 10:43:44;;;;;;;2.83;1.08;;;20.30;84.30;;;;;;5072414;28;20169;-73
2022/07/15 10:46:16;;;;;;;3.05;1.02;;;20.40;84.20;;;;;;5055592;28;20056;-75
2022/07/15 10:48:49;;;;;;;2.08;1.00;;;20.40;84.10;;;;;;5074013;28;20108;-74
2022/07/15 10:51:36;;;;;;;2.40;1.00;;;20.40;84.10;;;;;;5073856;28;20078;-74
2022/07/15 10:54:03;;;;;;;2.70;1.00;;;20.40;84.10;;;;;;5055195;28;20048;-75
2022/07/15 10:56:36;;;;;;;1.48;0.90;;;20.40;84.00;;;;;;5072739;28;20020;-73
2022/07/15 10:59:23;;;;;;;2.97;1.00;;;20.40;84.10;;;;;;5073546;28;20659;-75
2022/07/15 11:02:09;;;;;;;1.90;1.00;;;20.40;84.10;;;;;;5055579;28;20028;-74
2022/07/15 11:04:36;;;;;;;2.08;1.00;;;20.40;84.20;;;;;;5073177;28;20729;-74
2022/07/15 11:07:06;;;;;;;2.38;1.10;;;20.30;84.30;;;;;;5055435;28;20488;-74
2022/07/15 11:10:02;;;;;;;2.90;1.00;;;20.30;84.30;;;;;;5055569;28;20411;-74
2022/07/15 11:12:28;;;;;;;4.57;1.10;;;20.30;84.40;;;;;;5055430;28;20013;-74
2022/07/15 11:15:00;;;;;;;2.58;0.93;;;20.30;84.30;;;;;;5072806;28;20032;-74
2022/07/15 11:17:28;;;;;;;1.70;1.00;;;20.30;84.20;;;;;;5073485;28;20020;-74
2022/07/15 11:20:09;;;;;;;2.72;1.00;;;20.40;84.20;;;;;;5055021;28;20077;-74
2022/07/15 11:22:39;;;;;;;2.08;1.13;;;20.40;84.10;;;;;;5072038;28;20020;-73
2022/07/15 11:25:06;;;;;;;2.05;0.95;;;20.40;84.00;;;;;;5071468;28;20027;-74
2022/07/15 11:27:32;;;;;;;3.40;0.95;;;20.30;84.00;;;;;;5071896;28;20116;-75
2022/07/15 11:30:03;;;;;;;2.38;0.90;;;20.40;84.10;;;;;;5072866;28;20099;-74
2022/07/15 11:32:30;;;;;;;;;;;20.30;84.20;;;;;;5072373;28;20025;-74
2022/07/15 11:34:58;;;;;;;3.22;1.00;;;20.30;84.20;;;;;;5054471;28;19962;-74
2022/07/15 11:37:25;;;;;;;2.58;0.90;;;20.30;84.20;;;;;;5072909;28;20103;-74
2022/07/15 11:40:08;;;;;;;2.35;0.90;;;20.30;84.20;;;;;;5054745;28;20012;-74
2022/07/15 11:45:33;;;;;;;1.17;0.85;;;20.30;84.00;;;;;;5072412;28;20031;-75
2022/07/15 11:47:58;;;;;;;2.33;1.02;;;20.20;84.00;;;;;;5072542;28;20528;-75
2022/07/15 11:50:24;;;;;;;2.33;0.98;;;20.30;84.10;;;;;;5072605;28;20134;-74
2022/07/15 11:52:55;;;;;;;1.77;0.80;;;20.30;84.00;;;;;;5054760;28;20020;-75
2022/07/15 11:55:21;;;;;;;2.25;1.00;;;20.30;84.10;;;;;;5070864;28;20077;-75
2022/07/15 11:57:47;;;;;;;2.33;0.90;;;20.30;84.00;;;;;;5054497;28;20028;-75
2022/07/15 12:00:13;;;;;;;1.73;0.90;;;20.30;84.10;;;;;;5054375;28;20090;-75
2022/07/15 12:02:39;;;;;;;2.30;1.10;;;20.40;84.10;;;;;;5054506;28;20021;-75
2022/07/15 12:05:06;;;;;;;2.20;0.90;;;20.40;84.00;;;;;;5071823;28;20035;-75
2022/07/15 12:07:44;;;;;;;1.58;0.88;;;20.40;83.90;;;;;;5070775;28;20028;-74
2022/07/15 12:10:11;;;;;;;1.38;0.80;;;20.50;83.70;;;;;;5072156;28;20063;-74
2022/07/15 12:12:40;;;;;;;1.70;0.80;;;20.50;83.50;;;;;;5070906;28;20045;-75
2022/07/15 12:15:07;;;;;;;2.33;1.00;;;20.50;83.40;;;;;;5071560;28;20070;-74
2022/07/15 12:17:33;;;;;;;2.40;0.88;;;20.50;83.40;;;;;;5070828;28;20475;-75
2022/07/15 12:20:02;;;;;;;2.05;0.90;;;20.50;83.40;;;;;;5071971;28;20080;-74
2022/07/15 12:22:27;;;;;;;2.38;1.08;;;20.40;83.50;;;;;;5071851;28;20028;-74
2022/07/15 12:24:53;;;;;;;2.25;0.95;;;20.40;83.60;;;;;;5053713;28;20095;-74
2022/07/15 12:27:31;;;;;;;3.33;0.90;;;20.40;83.70;;;;;;5053974;28;20016;-74
2022/07/15 12:30:05;;;;;;;1.13;0.75;;;20.40;83.70;;;;;;5070530;28;20013;-75
2022/07/15 12:32:31;;;;;;;1.48;0.77;;;20.40;83.60;;;;;;5070567;28;20427;-74
2022/07/15 12:34:58;;;;;;;1.95;0.90;;;20.30;83.70;;;;;;5071148;28;20024;-75
2022/07/15 12:37:28;;;;;;;1.67;0.90;;;20.30;83.80;;;;;;5054003;28;20040;-75
2022/07/15 12:40:05;;;;;;;2.90;1.00;;;20.40;83.80;;;;;;5070474;28;20052;-74
2022/07/15 12:42:51;;;;;;;0.85;0.68;;;20.30;83.60;;;;;;5070253;28;20051;-75
2022/07/15 12:45:20;;;;;;;1.95;0.90;;;20.40;83.90;;;;;;5069866;28;20112;-75
2022/07/15 12:48:09;;;;;;;1.90;1.00;;;20.30;83.90;;;;;;5053643;28;20070;-74
2022/07/15 12:50:57;;;;;;;1.83;0.90;;;20.30;84.00;;;;;;5070270;28;20485;-74
2022/07/15 12:53:25;;;;;;;1.63;0.90;;;20.30;84.20;;;;;;5053350;28;20042;-74
2022/07/15 12:55:54;;;;;;;1.38;0.80;;;20.20;84.30;;;;;;5071399;28;20104;-75
2022/07/15 12:58:25;;;;;;;1.48;0.80;;;20.30;84.40;;;;;;5070158;28;20021;-74
2022/07/15 13:00:51;;;;;;;2.35;0.77;;;20.30;84.30;;;;;;5070294;28;20032;-75